Ashmore, IL

2:46 PM CDT on April 26, 2015 (GMT -0500)
EIU Campus | | Change Station
CLOSE
Current Station
Personal Weather Station
Location: Charleston, IL
Elevation: 714 ft
Nearby Weather Stations

Elev 714 ft 39.48 °N, 88.18 °W | Updated 21 seconds ago

Clear
Clear
56.7 °F
Feels Like 56.7 °F
N
24.2
Wind Variable Wind from North
Gusts 24.2 mph

Today
High -- | Low -- °F
--% Chance of Precip.
Yesterday
High -- | Low -- °F
Precip. -- in
5:59 AM 7:40 PM
First Quarter, 58% visible
Pressure 29.94 in
Visibility 10.0 miles
Clouds Clear
Dew Point 35 °F
Humidity 44%
Rainfall 0.00 in
Snow Depth Not available.
UV 6.4 out of 12
Pollen 9.50 out of 12
Air Quality Not available.
Flu Activity Regional
METAR KMTO 261853Z AUTO 01014G21KT 10SM CLR 13/03 A2993 RMK AO2 SLP136 T01330028

More Conditions Fewer Conditions

Pressure 29.94 in
Visibility 10.0 miles
Clouds Clear
Dew Point 35 °F
Humidity 44%
Rainfall 0.00 in
Snow Depth Not available.
UV 6.4 out of 12
Pollen 9.50 out of 12
Air Quality Not available.
Flu Activity Regional
METAR KMTO 261853Z AUTO 01014G21KT 10SM CLR 13/03 A2993 RMK AO2 SLP136 T01330028

More Conditions Fewer Conditions

The full scope of the disaster following a powerful 7.8-magnitude earthquake in Nepal may not come into view for days, but global charities are already sending emergency aid. Click to see how you can help.

10-Day Weather Forecast

Almanac

Astronomy

Apr. 26, 2015 Rise Set
Actual Time
Civil Twilight
Nautical Twilight
Astronomical Twilight
Moon
Length of Visible Light
Length of Day
Tomorrow will be .
, % of the Moon is Illuminated

Today's Extremes

State Highs State Lows

Community

WunderPhotos

Upload Photos

1,817,103 photos uploaded!

WunderBlogs® & News

Nearby

Air Quality

  Air Quality AQ Index Pollutant
Not available.

Snow Depth

Station Depth Elevation

Earthquake Activity

City Distance Mag. Time & Date
Minimum magnitude displayed is 2.5.

Coastal Water Temperatures

Place Temperature

Stations

Nearby Weather Stations

Station Location Temp. Windchill Dew Point Humidity Wind Precip. Elev Updated Type